sensor_id;sensor_type;location;lat;lon;timestamp;P1;durP1;ratioP1;P2;durP2;ratioP2
8007;SDS011;4049;49.468;11.200;2023-08-01T00:00:05;5.50;;;3.40;;
8007;SDS011;4049;49.468;11.200;2023-08-01T00:02:33;7.23;;;4.03;;
8007;SDS011;4049;49.468;11.200;2023-08-01T00:05:00;5.73;;;4.00;;
8007;SDS011;4049;49.468;11.200;2023-08-01T00:07:29;8.30;;;4.27;;
8007;SDS011;4049;49.468;11.200;2023-08-01T00:09:55;7.00;;;3.97;;
8007;SDS011;4049;49.468;11.200;2023-08-01T00:12:23;5.10;;;3.63;;
8007;SDS011;4049;49.468;11.200;2023-08-01T00:14:51;6.27;;;3.97;;
8007;SDS011;4049;49.468;11.200;2023-08-01T00:17:17;7.10;;;4.17;;
8007;SDS011;4049;49.468;11.200;2023-08-01T00:19:44;6.70;;;3.57;;
8007;SDS011;4049;49.468;11.200;2023-08-01T00:22:14;7.03;;;4.13;;
8007;SDS011;4049;49.468;11.200;2023-08-01T00:24:49;7.33;;;4.27;;
8007;SDS011;4049;49.468;11.200;2023-08-01T00:27:17;4.47;;;3.60;;
8007;SDS011;4049;49.468;11.200;2023-08-01T00:29:44;5.10;;;3.60;;
8007;SDS011;4049;49.468;11.200;2023-08-01T00:32:11;5.37;;;3.57;;
8007;SDS011;4049;49.468;11.200;2023-08-01T00:34:38;8.50;;;4.17;;
8007;SDS011;4049;49.468;11.200;2023-08-01T00:37:05;6.10;;;3.97;;
8007;SDS011;4049;49.468;11.200;2023-08-01T00:39:32;5.57;;;3.43;;
8007;SDS011;4049;49.468;11.200;2023-08-01T00:42:01;6.47;;;3.77;;
8007;SDS011;4049;49.468;11.200;2023-08-01T00:44:28;4.50;;;3.37;;
8007;SDS011;4049;49.468;11.200;2023-08-01T00:46:55;4.73;;;3.63;;
8007;SDS011;4049;49.468;11.200;2023-08-01T00:49:22;5.07;;;3.97;;
8007;SDS011;4049;49.468;11.200;2023-08-01T00:51:49;6.13;;;3.80;;
8007;SDS011;4049;49.468;11.200;2023-08-01T00:54:16;7.70;;;3.93;;
8007;SDS011;4049;49.468;11.200;2023-08-01T00:56:43;6.10;;;4.03;;
8007;SDS011;4049;49.468;11.200;2023-08-01T00:59:12;6.43;;;4.10;;
8007;SDS011;4049;49.468;11.200;2023-08-01T01:01:39;5.40;;;3.97;;
8007;SDS011;4049;49.468;11.200;2023-08-01T01:04:06;5.30;;;3.30;;
8007;SDS011;4049;49.468;11.200;2023-08-01T01:06:37;8.33;;;4.00;;
8007;SDS011;4049;49.468;11.200;2023-08-01T01:09:14;6.43;;;3.57;;
8007;SDS011;4049;49.468;11.200;2023-08-01T01:11:42;6.43;;;3.87;;
8007;SDS011;4049;49.468;11.200;2023-08-01T01:14:09;6.27;;;3.67;;
8007;SDS011;4049;49.468;11.200;2023-08-01T01:16:37;7.80;;;3.90;;
8007;SDS011;4049;49.468;11.200;2023-08-01T01:19:06;6.07;;;3.97;;
8007;SDS011;4049;49.468;11.200;2023-08-01T01:21:35;5.70;;;3.50;;
8007;SDS011;4049;49.468;11.200;2023-08-01T01:24:07;11.13;;;4.70;;
8007;SDS011;4049;49.468;11.200;2023-08-01T01:26:36;4.53;;;3.63;;
8007;SDS011;4049;49.468;11.200;2023-08-01T01:29:04;7.17;;;3.73;;
8007;SDS011;4049;49.468;11.200;2023-08-01T01:31:33;6.10;;;4.20;;
8007;SDS011;4049;49.468;11.200;2023-08-01T01:34:01;6.23;;;3.70;;
8007;SDS011;4049;49.468;11.200;2023-08-01T01:36:29;5.30;;;3.47;;
8007;SDS011;4049;49.468;11.200;2023-08-01T01:38:57;5.60;;;3.63;;
8007;SDS011;4049;49.468;11.200;2023-08-01T01:41:24;6.30;;;3.87;;
8007;SDS011;4049;49.468;11.200;2023-08-01T01:43:51;6.67;;;3.93;;
8007;SDS011;4049;49.468;11.200;2023-08-01T01:46:18;6.73;;;3.53;;
8007;SDS011;4049;49.468;11.200;2023-08-01T01:48:45;7.40;;;3.90;;
8007;SDS011;4049;49.468;11.200;2023-08-01T01:51:12;5.87;;;4.33;;
8007;SDS011;4049;49.468;11.200;2023-08-01T01:53:39;5.93;;;3.70;;
8007;SDS011;4049;49.468;11.200;2023-08-01T01:56:08;5.87;;;3.87;;
8007;SDS011;4049;49.468;11.200;2023-08-01T01:58:35;5.60;;;3.97;;
8007;SDS011;4049;49.468;11.200;2023-08-01T02:01:02;5.77;;;3.77;;
8007;SDS011;4049;49.468;11.200;2023-08-01T02:03:29;5.13;;;3.63;;
8007;SDS011;4049;49.468;11.200;2023-08-01T02:05:56;6.27;;;3.80;;
8007;SDS011;4049;49.468;11.200;2023-08-01T02:08:24;6.70;;;3.90;;
8007;SDS011;4049;49.468;11.200;2023-08-01T02:10:51;4.60;;;3.33;;
8007;SDS011;4049;49.468;11.200;2023-08-01T02:13:21;5.83;;;3.77;;
8007;SDS011;4049;49.468;11.200;2023-08-01T02:15:48;6.17;;;3.60;;
8007;SDS011;4049;49.468;11.200;2023-08-01T02:18:15;6.47;;;3.80;;
8007;SDS011;4049;49.468;11.200;2023-08-01T02:20:42;6.43;;;4.10;;
8007;SDS011;4049;49.468;11.200;2023-08-01T02:23:09;6.73;;;3.73;;
8007;SDS011;4049;49.468;11.200;2023-08-01T02:25:38;5.83;;;3.93;;
8007;SDS011;4049;49.468;11.200;2023-08-01T02:28:05;7.30;;;4.03;;
8007;SDS011;4049;49.468;11.200;2023-08-01T02:30:33;5.57;;;3.50;;
8007;SDS011;4049;49.468;11.200;2023-08-01T02:33:00;7.53;;;4.10;;
8007;SDS011;4049;49.468;11.200;2023-08-01T02:35:27;5.97;;;3.70;;
8007;SDS011;4049;49.468;11.200;2023-08-01T02:37:54;6.57;;;4.63;;
8007;SDS011;4049;49.468;11.200;2023-08-01T02:40:21;6.23;;;3.73;;
8007;SDS011;4049;49.468;11.200;2023-08-01T02:42:48;6.43;;;3.57;;
8007;SDS011;4049;49.468;11.200;2023-08-01T02:45:15;5.60;;;4.23;;
8007;SDS011;4049;49.468;11.200;2023-08-01T02:47:44;5.37;;;3.70;;
8007;SDS011;4049;49.468;11.200;2023-08-01T02:50:11;6.80;;;3.77;;
8007;SDS011;4049;49.468;11.200;2023-08-01T02:52:38;8.07;;;3.80;;
8007;SDS011;4049;49.468;11.200;2023-08-01T02:55:05;7.90;;;3.90;;
8007;SDS011;4049;49.468;11.200;2023-08-01T02:57:32;5.40;;;3.77;;
8007;SDS011;4049;49.468;11.200;2023-08-01T02:59:59;7.50;;;3.77;;
8007;SDS011;4049;49.468;11.200;2023-08-01T03:02:29;6.13;;;4.07;;
8007;SDS011;4049;49.468;11.200;2023-08-01T03:04:58;5.23;;;3.80;;
8007;SDS011;4049;49.468;11.200;2023-08-01T03:07:25;5.93;;;3.90;;
8007;SDS011;4049;49.468;11.200;2023-08-01T03:09:52;6.00;;;3.90;;
8007;SDS011;4049;49.468;11.200;2023-08-01T03:12:20;6.33;;;3.60;;
8007;SDS011;4049;49.468;11.200;2023-08-01T03:14:47;4.93;;;3.80;;
8007;SDS011;4049;49.468;11.200;2023-08-01T03:17:13;6.63;;;3.73;;
8007;SDS011;4049;49.468;11.200;2023-08-01T03:19:40;7.20;;;4.23;;
8007;SDS011;4049;49.468;11.200;2023-08-01T03:22:09;10.30;;;3.80;;
8007;SDS011;4049;49.468;11.200;2023-08-01T03:24:36;6.77;;;4.03;;
8007;SDS011;4049;49.468;11.200;2023-08-01T03:27:03;6.53;;;3.77;;
8007;SDS011;4049;49.468;11.200;2023-08-01T03:29:30;6.30;;;3.70;;
8007;SDS011;4049;49.468;11.200;2023-08-01T03:31:57;7.60;;;4.17;;
8007;SDS011;4049;49.468;11.200;2023-08-01T03:34:24;8.27;;;3.77;;
8007;SDS011;4049;49.468;11.200;2023-08-01T03:36:51;7.07;;;3.83;;
8007;SDS011;4049;49.468;11.200;2023-08-01T03:39:20;5.57;;;3.77;;
8007;SDS011;4049;49.468;11.200;2023-08-01T03:41:47;7.13;;;4.20;;
8007;SDS011;4049;49.468;11.200;2023-08-01T03:44:13;6.43;;;4.40;;
8007;SDS011;4049;49.468;11.200;2023-08-01T03:46:48;5.97;;;3.80;;
8007;SDS011;4049;49.468;11.200;2023-08-01T03:49:15;8.23;;;4.30;;
8007;SDS011;4049;49.468;11.200;2023-08-01T03:51:41;5.73;;;3.90;;
8007;SDS011;4049;49.468;11.200;2023-08-01T03:54:08;5.70;;;3.53;;
8007;SDS011;4049;49.468;11.200;2023-08-01T03:56:37;5.83;;;3.63;;
8007;SDS011;4049;49.468;11.200;2023-08-01T03:59:08;7.00;;;3.80;;
8007;SDS011;4049;49.468;11.200;2023-08-01T04:01:35;5.53;;;3.83;;
8007;SDS011;4049;49.468;11.200;2023-08-01T04:04:02;7.07;;;4.37;;
8007;SDS011;4049;49.468;11.200;2023-08-01T04:06:28;6.53;;;3.67;;
8007;SDS011;4049;49.468;11.200;2023-08-01T04:08:55;6.70;;;4.03;;
8007;SDS011;4049;49.468;11.200;2023-08-01T04:11:28;6.43;;;3.90;;
8007;SDS011;4049;49.468;11.200;2023-08-01T04:13:56;6.57;;;4.10;;
8007;SDS011;4049;49.468;11.200;2023-08-01T04:16:23;5.80;;;3.70;;
8007;SDS011;4049;49.468;11.200;2023-08-01T04:18:50;6.43;;;4.17;;
8007;SDS011;4049;49.468;11.200;2023-08-01T04:21:17;6.00;;;4.03;;
8007;SDS011;4049;49.468;11.200;2023-08-01T04:23:44;8.17;;;3.70;;
8007;SDS011;4049;49.468;11.200;2023-08-01T04:26:11;5.63;;;4.00;;
8007;SDS011;4049;49.468;11.200;2023-08-01T04:28:38;6.53;;;3.83;;
8007;SDS011;4049;49.468;11.200;2023-08-01T04:31:07;4.77;;;3.33;;
8007;SDS011;4049;49.468;11.200;2023-08-01T04:33:35;7.23;;;3.87;;
8007;SDS011;4049;49.468;11.200;2023-08-01T04:36:02;7.83;;;4.43;;
8007;SDS011;4049;49.468;11.200;2023-08-01T04:38:29;8.00;;;3.90;;
8007;SDS011;4049;49.468;11.200;2023-08-01T04:40:56;4.90;;;4.03;;
8007;SDS011;4049;49.468;11.200;2023-08-01T04:43:23;7.00;;;4.23;;
8007;SDS011;4049;49.468;11.200;2023-08-01T04:45:50;6.40;;;3.90;;
8007;SDS011;4049;49.468;11.200;2023-08-01T04:48:18;6.03;;;3.70;;
8007;SDS011;4049;49.468;11.200;2023-08-01T04:50:45;8.50;;;4.43;;
8007;SDS011;4049;49.468;11.200;2023-08-01T04:53:12;7.63;;;4.03;;
8007;SDS011;4049;49.468;11.200;2023-08-01T04:55:39;7.03;;;4.53;;
8007;SDS011;4049;49.468;11.200;2023-08-01T04:58:06;6.40;;;4.40;;
8007;SDS011;4049;49.468;11.200;2023-08-01T05:00:33;6.33;;;4.00;;
8007;SDS011;4049;49.468;11.200;2023-08-01T05:03:00;7.57;;;4.23;;
8007;SDS011;4049;49.468;11.200;2023-08-01T05:05:28;5.50;;;4.00;;
8007;SDS011;4049;49.468;11.200;2023-08-01T05:07:56;8.27;;;4.27;;
8007;SDS011;4049;49.468;11.200;2023-08-01T05:10:23;5.90;;;4.13;;
8007;SDS011;4049;49.468;11.200;2023-08-01T05:12:49;5.67;;;3.63;;
8007;SDS011;4049;49.468;11.200;2023-08-01T05:15:16;6.77;;;3.80;;
8007;SDS011;4049;49.468;11.200;2023-08-01T05:17:43;5.93;;;3.60;;
8007;SDS011;4049;49.468;11.200;2023-08-01T05:20:10;5.17;;;4.03;;
8007;SDS011;4049;49.468;11.200;2023-08-01T05:22:39;7.20;;;4.07;;
8007;SDS011;4049;49.468;11.200;2023-08-01T05:25:06;5.33;;;3.80;;
8007;SDS011;4049;49.468;11.200;2023-08-01T05:27:33;7.53;;;4.00;;
8007;SDS011;4049;49.468;11.200;2023-08-01T05:30:00;6.93;;;3.93;;
8007;SDS011;4049;49.468;11.200;2023-08-01T05:32:27;7.93;;;4.03;;
8007;SDS011;4049;49.468;11.200;2023-08-01T05:34:53;5.43;;;4.00;;
8007;SDS011;4049;49.468;11.200;2023-08-01T05:37:20;10.00;;;4.47;;
8007;SDS011;4049;49.468;11.200;2023-08-01T05:39:48;6.87;;;4.83;;
8007;SDS011;4049;49.468;11.200;2023-08-01T05:42:15;7.07;;;4.23;;
8007;SDS011;4049;49.468;11.200;2023-08-01T05:44:42;5.47;;;4.20;;
8007;SDS011;4049;49.468;11.200;2023-08-01T05:47:09;8.67;;;4.30;;
8007;SDS011;4049;49.468;11.200;2023-08-01T05:49:36;6.47;;;4.17;;
8007;SDS011;4049;49.468;11.200;2023-08-01T05:52:03;7.83;;;4.13;;
8007;SDS011;4049;49.468;11.200;2023-08-01T05:54:30;5.97;;;4.17;;
8007;SDS011;4049;49.468;11.200;2023-08-01T05:56:58;7.13;;;4.37;;
8007;SDS011;4049;49.468;11.200;2023-08-01T05:59:25;6.77;;;4.43;;
8007;SDS011;4049;49.468;11.200;2023-08-01T06:01:52;6.73;;;3.73;;
8007;SDS011;4049;49.468;11.200;2023-08-01T06:04:18;7.00;;;4.37;;
8007;SDS011;4049;49.468;11.200;2023-08-01T06:06:45;5.77;;;4.03;;
8007;SDS011;4049;49.468;11.200;2023-08-01T06:09:12;6.87;;;4.07;;
8007;SDS011;4049;49.468;11.200;2023-08-01T06:11:39;6.37;;;4.33;;
8007;SDS011;4049;49.468;11.200;2023-08-01T06:14:08;7.57;;;4.40;;
8007;SDS011;4049;49.468;11.200;2023-08-01T06:16:35;7.30;;;4.40;;
8007;SDS011;4049;49.468;11.200;2023-08-01T06:19:02;7.73;;;4.30;;
8007;SDS011;4049;49.468;11.200;2023-08-01T06:21:29;6.90;;;4.53;;
8007;SDS011;4049;49.468;11.200;2023-08-01T06:23:56;7.63;;;4.73;;
8007;SDS011;4049;49.468;11.200;2023-08-01T06:26:23;6.27;;;4.27;;
8007;SDS011;4049;49.468;11.200;2023-08-01T06:28:50;7.27;;;4.23;;
8007;SDS011;4049;49.468;11.200;2023-08-01T06:31:19;6.80;;;4.30;;
8007;SDS011;4049;49.468;11.200;2023-08-01T06:33:46;8.30;;;4.57;;
8007;SDS011;4049;49.468;11.200;2023-08-01T06:36:14;7.80;;;4.63;;
8007;SDS011;4049;49.468;11.200;2023-08-01T06:38:41;8.03;;;4.37;;
8007;SDS011;4049;49.468;11.200;2023-08-01T06:41:09;7.00;;;4.17;;
8007;SDS011;4049;49.468;11.200;2023-08-01T06:43:35;9.53;;;5.73;;
8007;SDS011;4049;49.468;11.200;2023-08-01T06:46:03;6.97;;;4.73;;
8007;SDS011;4049;49.468;11.200;2023-08-01T06:48:31;10.20;;;4.57;;
8007;SDS011;4049;49.468;11.200;2023-08-01T06:50:59;9.77;;;4.57;;
8007;SDS011;4049;49.468;11.200;2023-08-01T06:53:27;8.80;;;4.30;;
8007;SDS011;4049;49.468;11.200;2023-08-01T06:55:54;7.17;;;4.17;;
8007;SDS011;4049;49.468;11.200;2023-08-01T06:58:20;7.10;;;4.57;;
8007;SDS011;4049;49.468;11.200;2023-08-01T07:00:47;5.83;;;4.10;;
8007;SDS011;4049;49.468;11.200;2023-08-01T07:03:14;8.70;;;4.43;;
8007;SDS011;4049;49.468;11.200;2023-08-01T07:05:42;6.60;;;4.40;;
8007;SDS011;4049;49.468;11.200;2023-08-01T07:08:09;7.67;;;4.50;;
8007;SDS011;4049;49.468;11.200;2023-08-01T07:10:36;6.83;;;4.53;;
8007;SDS011;4049;49.468;11.200;2023-08-01T07:13:03;7.33;;;4.63;;
8007;SDS011;4049;49.468;11.200;2023-08-01T07:15:30;7.17;;;3.93;;
8007;SDS011;4049;49.468;11.200;2023-08-01T07:17:57;7.37;;;4.60;;
8007;SDS011;4049;49.468;11.200;2023-08-01T07:20:24;6.50;;;4.00;;
8007;SDS011;4049;49.468;11.200;2023-08-01T07:22:52;7.50;;;4.00;;
8007;SDS011;4049;49.468;11.200;2023-08-01T07:25:19;6.10;;;4.40;;
8007;SDS011;4049;49.468;11.200;2023-08-01T07:27:47;9.63;;;4.80;;
8007;SDS011;4049;49.468;11.200;2023-08-01T07:30:14;6.03;;;3.90;;
8007;SDS011;4049;49.468;11.200;2023-08-01T07:32:41;5.83;;;4.13;;
8007;SDS011;4049;49.468;11.200;2023-08-01T07:35:08;8.27;;;4.70;;
8007;SDS011;4049;49.468;11.200;2023-08-01T07:37:36;6.83;;;3.90;;
8007;SDS011;4049;49.468;11.200;2023-08-01T07:40:05;7.17;;;4.07;;
8007;SDS011;4049;49.468;11.200;2023-08-01T07:42:32;7.43;;;4.20;;
8007;SDS011;4049;49.468;11.200;2023-08-01T07:44:59;6.60;;;4.50;;
8007;SDS011;4049;49.468;11.200;2023-08-01T07:47:26;9.90;;;4.67;;
8007;SDS011;4049;49.468;11.200;2023-08-01T07:49:53;6.90;;;4.13;;
8007;SDS011;4049;49.468;11.200;2023-08-01T07:52:20;6.23;;;4.33;;
8007;SDS011;4049;49.468;11.200;2023-08-01T07:54:47;6.73;;;4.40;;
8007;SDS011;4049;49.468;11.200;2023-08-01T07:57:15;7.70;;;4.60;;
8007;SDS011;4049;49.468;11.200;2023-08-01T07:59:42;7.17;;;4.37;;
8007;SDS011;4049;49.468;11.200;2023-08-01T08:02:09;8.43;;;4.50;;
8007;SDS011;4049;49.468;11.200;2023-08-01T08:04:35;4.30;;;3.70;;
8007;SDS011;4049;49.468;11.200;2023-08-01T08:07:02;7.37;;;3.60;;
8007;SDS011;4049;49.468;11.200;2023-08-01T08:09:30;6.13;;;4.20;;
8007;SDS011;4049;49.468;11.200;2023-08-01T08:11:57;8.23;;;4.40;;
8007;SDS011;4049;49.468;11.200;2023-08-01T08:14:25;8.47;;;4.37;;
8007;SDS011;4049;49.468;11.200;2023-08-01T08:16:52;7.37;;;4.37;;
8007;SDS011;4049;49.468;11.200;2023-08-01T08:19:18;7.77;;;4.40;;
8007;SDS011;4049;49.468;11.200;2023-08-01T08:21:45;6.73;;;4.20;;
8007;SDS011;4049;49.468;11.200;2023-08-01T08:24:12;8.80;;;4.63;;
8007;SDS011;4049;49.468;11.200;2023-08-01T08:26:39;6.43;;;4.43;;
8007;SDS011;4049;49.468;11.200;2023-08-01T08:29:06;9.53;;;4.90;;
8007;SDS011;4049;49.468;11.200;2023-08-01T08:31:34;10.37;;;4.47;;
8007;SDS011;4049;49.468;11.200;2023-08-01T08:34:01;6.27;;;4.23;;
8007;SDS011;4049;49.468;11.200;2023-08-01T08:36:27;5.70;;;3.77;;
8007;SDS011;4049;49.468;11.200;2023-08-01T08:38:54;6.87;;;3.83;;
8007;SDS011;4049;49.468;11.200;2023-08-01T08:41:22;6.73;;;3.90;;
8007;SDS011;4049;49.468;11.200;2023-08-01T08:43:53;7.87;;;4.20;;
8007;SDS011;4049;49.468;11.200;2023-08-01T08:46:23;6.37;;;4.40;;
8007;SDS011;4049;49.468;11.200;2023-08-01T08:48:56;6.67;;;4.00;;
8007;SDS011;4049;49.468;11.200;2023-08-01T08:51:23;8.23;;;4.27;;
8007;SDS011;4049;49.468;11.200;2023-08-01T08:53:53;6.13;;;3.47;;
8007;SDS011;4049;49.468;11.200;2023-08-01T08:56:20;4.53;;;3.60;;
8007;SDS011;4049;49.468;11.200;2023-08-01T08:58:47;5.00;;;3.83;;
8007;SDS011;4049;49.468;11.200;2023-08-01T09:01:15;7.57;;;3.97;;
8007;SDS011;4049;49.468;11.200;2023-08-01T09:03:43;6.33;;;3.97;;
8007;SDS011;4049;49.468;11.200;2023-08-01T09:06:12;7.80;;;3.70;;
8007;SDS011;4049;49.468;11.200;2023-08-01T09:08:41;4.10;;;3.30;;
8007;SDS011;4049;49.468;11.200;2023-08-01T09:11:17;7.67;;;4.20;;
8007;SDS011;4049;49.468;11.200;2023-08-01T09:13:44;6.80;;;4.30;;
8007;SDS011;4049;49.468;11.200;2023-08-01T09:16:11;6.23;;;4.03;;
8007;SDS011;4049;49.468;11.200;2023-08-01T09:18:46;7.30;;;4.40;;
8007;SDS011;4049;49.468;11.200;2023-08-01T09:21:17;8.27;;;4.70;;
8007;SDS011;4049;49.468;11.200;2023-08-01T09:23:44;5.20;;;3.80;;
8007;SDS011;4049;49.468;11.200;2023-08-01T09:26:14;7.13;;;4.43;;
8007;SDS011;4049;49.468;11.200;2023-08-01T09:28:41;5.13;;;3.67;;
8007;SDS011;4049;49.468;11.200;2023-08-01T09:31:09;5.67;;;4.27;;
8007;SDS011;4049;49.468;11.200;2023-08-01T09:33:37;6.20;;;3.83;;
8007;SDS011;4049;49.468;11.200;2023-08-01T09:36:06;6.50;;;4.17;;
8007;SDS011;4049;49.468;11.200;2023-08-01T09:38:35;5.33;;;3.87;;
8007;SDS011;4049;49.468;11.200;2023-08-01T09:41:03;8.97;;;4.93;;
8007;SDS011;4049;49.468;11.200;2023-08-01T09:43:33;7.37;;;4.00;;
8007;SDS011;4049;49.468;11.200;2023-08-01T09:46:01;6.67;;;4.07;;
8007;SDS011;4049;49.468;11.200;2023-08-01T09:48:29;6.83;;;4.30;;
8007;SDS011;4049;49.468;11.200;2023-08-01T09:51:06;8.50;;;4.57;;
8007;SDS011;4049;49.468;11.200;2023-08-01T09:53:35;7.43;;;3.90;;
8007;SDS011;4049;49.468;11.200;2023-08-01T09:56:11;6.03;;;4.17;;
8007;SDS011;4049;49.468;11.200;2023-08-01T09:58:41;6.03;;;4.00;;
8007;SDS011;4049;49.468;11.200;2023-08-01T10:01:09;8.00;;;4.20;;
8007;SDS011;4049;49.468;11.200;2023-08-01T10:03:36;5.43;;;3.90;;
8007;SDS011;4049;49.468;11.200;2023-08-01T10:06:03;5.20;;;3.93;;
8007;SDS011;4049;49.468;11.200;2023-08-01T10:08:30;6.43;;;3.80;;
8007;SDS011;4049;49.468;11.200;2023-08-01T10:10:59;6.07;;;4.13;;
8007;SDS011;4049;49.468;11.200;2023-08-01T10:13:29;6.50;;;3.50;;
8007;SDS011;4049;49.468;11.200;2023-08-01T10:15:57;5.47;;;3.70;;
8007;SDS011;4049;49.468;11.200;2023-08-01T10:18:25;5.43;;;4.07;;
8007;SDS011;4049;49.468;11.200;2023-08-01T10:20:54;8.03;;;4.20;;
8007;SDS011;4049;49.468;11.200;2023-08-01T10:23:21;6.03;;;4.00;;
8007;SDS011;4049;49.468;11.200;2023-08-01T10:25:48;7.50;;;3.67;;
8007;SDS011;4049;49.468;11.200;2023-08-01T10:28:17;7.80;;;3.80;;
8007;SDS011;4049;49.468;11.200;2023-08-01T10:30:44;5.77;;;4.13;;
8007;SDS011;4049;49.468;11.200;2023-08-01T10:33:11;5.77;;;3.83;;
8007;SDS011;4049;49.468;11.200;2023-08-01T10:35:39;5.23;;;3.63;;
8007;SDS011;4049;49.468;11.200;2023-08-01T10:38:07;6.17;;;3.67;;
8007;SDS011;4049;49.468;11.200;2023-08-01T10:40:35;5.60;;;3.80;;
8007;SDS011;4049;49.468;11.200;2023-08-01T10:43:02;5.93;;;4.10;;
8007;SDS011;4049;49.468;11.200;2023-08-01T10:45:31;4.77;;;3.57;;
8007;SDS011;4049;49.468;11.200;2023-08-01T10:48:08;5.67;;;3.63;;
8007;SDS011;4049;49.468;11.200;2023-08-01T10:50:35;5.37;;;3.47;;
8007;SDS011;4049;49.468;11.200;2023-08-01T10:53:02;5.43;;;3.27;;
8007;SDS011;4049;49.468;11.200;2023-08-01T10:55:43;6.03;;;3.50;;
8007;SDS011;4049;49.468;11.200;2023-08-01T10:58:12;5.77;;;3.50;;
8007;SDS011;4049;49.468;11.200;2023-08-01T11:00:41;5.27;;;3.27;;
8007;SDS011;4049;49.468;11.200;2023-08-01T11:03:08;4.97;;;3.33;;
8007;SDS011;4049;49.468;11.200;2023-08-01T11:05:35;5.07;;;3.07;;
8007;SDS011;4049;49.468;11.200;2023-08-01T11:08:02;3.70;;;2.80;;
8007;SDS011;4049;49.468;11.200;2023-08-01T11:10:31;5.17;;;2.73;;
8007;SDS011;4049;49.468;11.200;2023-08-01T11:12:59;4.33;;;3.20;;
8007;SDS011;4049;49.468;11.200;2023-08-01T11:15:26;4.37;;;2.60;;
8007;SDS011;4049;49.468;11.200;2023-08-01T11:17:54;3.73;;;2.60;;
8007;SDS011;4049;49.468;11.200;2023-08-01T11:20:22;3.50;;;2.97;;
8007;SDS011;4049;49.468;11.200;2023-08-01T11:22:52;4.20;;;2.70;;
8007;SDS011;4049;49.468;11.200;2023-08-01T11:25:30;2.83;;;2.23;;
8007;SDS011;4049;49.468;11.200;2023-08-01T11:28:01;3.50;;;2.20;;
8007;SDS011;4049;49.468;11.200;2023-08-01T11:30:29;3.67;;;2.57;;
8007;SDS011;4049;49.468;11.200;2023-08-01T11:32:59;3.07;;;2.70;;
8007;SDS011;4049;49.468;11.200;2023-08-01T11:35:27;3.27;;;2.50;;
8007;SDS011;4049;49.468;11.200;2023-08-01T11:37:58;2.67;;;2.20;;
8007;SDS011;4049;49.468;11.200;2023-08-01T11:40:25;2.73;;;2.23;;
8007;SDS011;4049;49.468;11.200;2023-08-01T11:42:55;3.10;;;2.43;;
8007;SDS011;4049;49.468;11.200;2023-08-01T11:45:26;4.13;;;2.40;;
8007;SDS011;4049;49.468;11.200;2023-08-01T11:47:53;3.20;;;2.07;;
8007;SDS011;4049;49.468;11.200;2023-08-01T11:50:24;2.77;;;2.17;;
8007;SDS011;4049;49.468;11.200;2023-08-01T11:52:52;5.43;;;2.43;;
8007;SDS011;4049;49.468;11.200;2023-08-01T11:55:22;2.93;;;1.90;;
8007;SDS011;4049;49.468;11.200;2023-08-01T11:57:55;2.57;;;2.10;;
8007;SDS011;4049;49.468;11.200;2023-08-01T12:00:23;3.23;;;1.90;;
8007;SDS011;4049;49.468;11.200;2023-08-01T12:02:51;2.20;;;1.80;;
8007;SDS011;4049;49.468;11.200;2023-08-01T12:05:30;3.70;;;2.07;;
8007;SDS011;4049;49.468;11.200;2023-08-01T12:08:07;2.00;;;1.40;;
8007;SDS011;4049;49.468;11.200;2023-08-01T12:10:39;1.87;;;1.70;;
8007;SDS011;4049;49.468;11.200;2023-08-01T12:13:07;1.57;;;1.40;;
8007;SDS011;4049;49.468;11.200;2023-08-01T12:15:46;2.13;;;1.40;;
8007;SDS011;4049;49.468;11.200;2023-08-01T12:18:18;1.73;;;1.40;;
8007;SDS011;4049;49.468;11.200;2023-08-01T12:20:47;1.40;;;1.17;;
8007;SDS011;4049;49.468;11.200;2023-08-01T12:23:14;1.93;;;1.27;;
8007;SDS011;4049;49.468;11.200;2023-08-01T12:25:41;1.30;;;1.20;;
8007;SDS011;4049;49.468;11.200;2023-08-01T12:28:08;1.37;;;1.23;;
8007;SDS011;4049;49.468;11.200;2023-08-01T12:30:39;1.87;;;1.23;;
8007;SDS011;4049;49.468;11.200;2023-08-01T12:33:06;1.20;;;1.10;;
8007;SDS011;4049;49.468;11.200;2023-08-01T12:35:33;2.10;;;1.30;;
8007;SDS011;4049;49.468;11.200;2023-08-01T12:38:02;1.00;;;0.87;;
8007;SDS011;4049;49.468;11.200;2023-08-01T12:40:28;1.25;;;1.00;;
8007;SDS011;4049;49.468;11.200;2023-08-01T12:42:55;1.30;;;1.00;;
8007;SDS011;4049;49.468;11.200;2023-08-01T12:45:22;1.15;;;1.00;;
8007;SDS011;4049;49.468;11.200;2023-08-01T12:47:49;1.02;;;0.90;;
8007;SDS011;4049;49.468;11.200;2023-08-01T12:50:16;1.00;;;0.90;;
8007;SDS011;4049;49.468;11.200;2023-08-01T12:52:43;1.13;;;1.02;;
8007;SDS011;4049;49.468;11.200;2023-08-01T12:55:12;1.88;;;0.95;;
8007;SDS011;4049;49.468;11.200;2023-08-01T12:57:38;1.10;;;1.00;;
8007;SDS011;4049;49.468;11.200;2023-08-01T13:00:06;1.02;;;0.90;;
8007;SDS011;4049;49.468;11.200;2023-08-01T13:02:35;1.10;;;0.75;;
8007;SDS011;4049;49.468;11.200;2023-08-01T13:05:02;1.90;;;1.13;;
8007;SDS011;4049;49.468;11.200;2023-08-01T13:07:29;1.58;;;0.90;;
8007;SDS011;4049;49.468;11.200;2023-08-01T13:09:57;1.17;;;0.90;;
8007;SDS011;4049;49.468;11.200;2023-08-01T13:12:29;1.10;;;1.00;;
8007;SDS011;4049;49.468;11.200;2023-08-01T13:14:56;1.08;;;0.98;;
8007;SDS011;4049;49.468;11.200;2023-08-01T13:17:22;2.85;;;1.10;;
8007;SDS011;4049;49.468;11.200;2023-08-01T13:19:49;1.20;;;1.10;;
8007;SDS011;4049;49.468;11.200;2023-08-01T13:22:17;2.03;;;1.17;;
8007;SDS011;4049;49.468;11.200;2023-08-01T13:24:44;1.48;;;1.20;;
8007;SDS011;4049;49.468;11.200;2023-08-01T13:27:12;1.33;;;1.17;;
8007;SDS011;4049;49.468;11.200;2023-08-01T13:29:40;2.13;;;1.10;;
8007;SDS011;4049;49.468;11.200;2023-08-01T13:32:07;1.10;;;0.90;;
8007;SDS011;4049;49.468;11.200;2023-08-01T13:34:34;1.20;;;1.10;;
8007;SDS011;4049;49.468;11.200;2023-08-01T13:37:04;1.47;;;1.03;;
8007;SDS011;4049;49.468;11.200;2023-08-01T13:39:31;2.80;;;1.00;;
8007;SDS011;4049;49.468;11.200;2023-08-01T13:42:02;1.83;;;1.00;;
8007;SDS011;4049;49.468;11.200;2023-08-01T13:44:29;1.35;;;1.10;;
8007;SDS011;4049;49.468;11.200;2023-08-01T13:46:59;0.90;;;0.90;;
8007;SDS011;4049;49.468;11.200;2023-08-01T13:49:28;1.10;;;0.93;;
8007;SDS011;4049;49.468;11.200;2023-08-01T13:51:55;0.82;;;0.82;;
8007;SDS011;4049;49.468;11.200;2023-08-01T13:54:28;1.58;;;1.10;;
8007;SDS011;4049;49.468;11.200;2023-08-01T13:56:55;2.33;;;1.17;;
8007;SDS011;4049;49.468;11.200;2023-08-01T13:59:22;1.63;;;1.20;;
8007;SDS011;4049;49.468;11.200;2023-08-01T14:01:49;1.10;;;1.00;;
8007;SDS011;4049;49.468;11.200;2023-08-01T14:04:18;1.50;;;1.20;;
8007;SDS011;4049;49.468;11.200;2023-08-01T14:06:45;0.80;;;0.80;;
8007;SDS011;4049;49.468;11.200;2023-08-01T14:09:12;1.20;;;1.00;;
8007;SDS011;4049;49.468;11.200;2023-08-01T14:11:39;1.33;;;1.00;;
8007;SDS011;4049;49.468;11.200;2023-08-01T14:14:06;3.27;;;1.60;;
8007;SDS011;4049;49.468;11.200;2023-08-01T14:16:33;2.03;;;1.20;;
8007;SDS011;4049;49.468;11.200;2023-08-01T14:19:00;2.47;;;1.50;;
8007;SDS011;4049;49.468;11.200;2023-08-01T14:21:30;1.50;;;1.20;;
8007;SDS011;4049;49.468;11.200;2023-08-01T14:24:03;2.70;;;1.73;;
8007;SDS011;4049;49.468;11.200;2023-08-01T14:26:30;1.73;;;1.33;;
8007;SDS011;4049;49.468;11.200;2023-08-01T14:28:57;1.83;;;1.40;;
8007;SDS011;4049;49.468;11.200;2023-08-01T14:31:24;2.23;;;1.30;;
8007;SDS011;4049;49.468;11.200;2023-08-01T14:33:57;1.73;;;1.57;;
8007;SDS011;4049;49.468;11.200;2023-08-01T14:36:31;1.73;;;1.20;;
8007;SDS011;4049;49.468;11.200;2023-08-01T14:38:57;1.33;;;1.17;;
8007;SDS011;4049;49.468;11.200;2023-08-01T14:41:24;3.37;;;1.30;;
8007;SDS011;4049;49.468;11.200;2023-08-01T14:43:54;1.10;;;1.00;;
8007;SDS011;4049;49.468;11.200;2023-08-01T14:46:21;2.00;;;1.10;;
8007;SDS011;4049;49.468;11.200;2023-08-01T14:48:50;1.30;;;1.10;;
8007;SDS011;4049;49.468;11.200;2023-08-01T14:51:17;2.70;;;1.53;;
8007;SDS011;4049;49.468;11.200;2023-08-01T14:53:46;1.93;;;1.33;;
8007;SDS011;4049;49.468;11.200;2023-08-01T14:56:12;1.30;;;0.90;;
8007;SDS011;4049;49.468;11.200;2023-08-01T14:58:42;2.13;;;1.00;;
8007;SDS011;4049;49.468;11.200;2023-08-01T15:01:15;1.07;;;1.00;;
8007;SDS011;4049;49.468;11.200;2023-08-01T15:03:54;0.87;;;0.87;;